sensor_id;sensor_type;location;lat;lon;timestamp;P1;durP1;ratioP1;P2;durP2;ratioP2
83840;SDS011;73868;52.172;10.668;2024-02-21T00:00:45;13.77;;;5.00;;
83840;SDS011;73868;52.172;10.668;2024-02-21T00:03:11;13.32;;;5.00;;
83840;SDS011;73868;52.172;10.668;2024-02-21T00:05:36;19.05;;;5.43;;
83840;SDS011;73868;52.172;10.668;2024-02-21T00:08:02;10.10;;;4.88;;
83840;SDS011;73868;52.172;10.668;2024-02-21T00:10:30;12.73;;;5.47;;
83840;SDS011;73868;52.172;10.668;2024-02-21T00:13:00;9.77;;;5.00;;
83840;SDS011;73868;52.172;10.668;2024-02-21T00:15:25;11.05;;;5.38;;
83840;SDS011;73868;52.172;10.668;2024-02-21T00:17:51;11.70;;;5.05;;
83840;SDS011;73868;52.172;10.668;2024-02-21T00:20:17;10.43;;;5.43;;
83840;SDS011;73868;52.172;10.668;2024-02-21T00:22:43;13.13;;;5.40;;
83840;SDS011;73868;52.172;10.668;2024-02-21T00:25:09;13.88;;;5.55;;
83840;SDS011;73868;52.172;10.668;2024-02-21T00:27:35;14.73;;;5.30;;
83840;SDS011;73868;52.172;10.668;2024-02-21T00:30:00;15.07;;;5.80;;
83840;SDS011;73868;52.172;10.668;2024-02-21T00:32:26;13.55;;;6.03;;
83840;SDS011;73868;52.172;10.668;2024-02-21T00:34:52;15.45;;;5.18;;
83840;SDS011;73868;52.172;10.668;2024-02-21T00:37:17;14.05;;;5.60;;
83840;SDS011;73868;52.172;10.668;2024-02-21T00:39:43;12.07;;;5.15;;
83840;SDS011;73868;52.172;10.668;2024-02-21T00:42:08;13.50;;;5.13;;
83840;SDS011;73868;52.172;10.668;2024-02-21T00:44:34;11.60;;;5.28;;
83840;SDS011;73868;52.172;10.668;2024-02-21T00:47:00;11.30;;;5.30;;
83840;SDS011;73868;52.172;10.668;2024-02-21T00:49:25;12.18;;;5.82;;
83840;SDS011;73868;52.172;10.668;2024-02-21T00:51:51;16.02;;;6.18;;
83840;SDS011;73868;52.172;10.668;2024-02-21T00:54:16;15.35;;;6.30;;
83840;SDS011;73868;52.172;10.668;2024-02-21T00:56:42;14.85;;;5.80;;
83840;SDS011;73868;52.172;10.668;2024-02-21T00:59:08;13.23;;;5.45;;
83840;SDS011;73868;52.172;10.668;2024-02-21T01:01:33;16.88;;;5.32;;
83840;SDS011;73868;52.172;10.668;2024-02-21T01:03:59;8.75;;;5.40;;
83840;SDS011;73868;52.172;10.668;2024-02-21T01:06:25;12.07;;;5.43;;
83840;SDS011;73868;52.172;10.668;2024-02-21T01:08:50;9.85;;;4.82;;
83840;SDS011;73868;52.172;10.668;2024-02-21T01:11:16;13.10;;;5.60;;
83840;SDS011;73868;52.172;10.668;2024-02-21T01:13:42;13.75;;;5.70;;
83840;SDS011;73868;52.172;10.668;2024-02-21T01:16:08;12.50;;;5.55;;
83840;SDS011;73868;52.172;10.668;2024-02-21T01:18:33;13.43;;;5.75;;
83840;SDS011;73868;52.172;10.668;2024-02-21T01:21:00;12.15;;;5.28;;
83840;SDS011;73868;52.172;10.668;2024-02-21T01:23:25;13.10;;;5.57;;
83840;SDS011;73868;52.172;10.668;2024-02-21T01:25:51;17.45;;;6.35;;
83840;SDS011;73868;52.172;10.668;2024-02-21T01:28:17;12.52;;;6.38;;
83840;SDS011;73868;52.172;10.668;2024-02-21T01:30:43;12.00;;;6.13;;
83840;SDS011;73868;52.172;10.668;2024-02-21T01:33:09;10.90;;;5.88;;
83840;SDS011;73868;52.172;10.668;2024-02-21T01:35:34;11.55;;;6.35;;
83840;SDS011;73868;52.172;10.668;2024-02-21T01:38:00;11.93;;;6.10;;
83840;SDS011;73868;52.172;10.668;2024-02-21T01:40:26;16.50;;;7.70;;
83840;SDS011;73868;52.172;10.668;2024-02-21T01:42:54;15.52;;;6.90;;
83840;SDS011;73868;52.172;10.668;2024-02-21T01:45:20;13.07;;;6.88;;
83840;SDS011;73868;52.172;10.668;2024-02-21T01:47:46;11.85;;;7.15;;
83840;SDS011;73868;52.172;10.668;2024-02-21T01:50:12;11.45;;;7.13;;
83840;SDS011;73868;52.172;10.668;2024-02-21T01:52:39;16.40;;;7.63;;
83840;SDS011;73868;52.172;10.668;2024-02-21T01:55:06;12.00;;;7.40;;
83840;SDS011;73868;52.172;10.668;2024-02-21T01:57:34;15.35;;;8.63;;
83840;SDS011;73868;52.172;10.668;2024-02-21T02:00:00;15.43;;;8.30;;
83840;SDS011;73868;52.172;10.668;2024-02-21T02:02:26;16.35;;;8.40;;
83840;SDS011;73868;52.172;10.668;2024-02-21T02:04:52;17.85;;;10.18;;
83840;SDS011;73868;52.172;10.668;2024-02-21T02:07:18;15.38;;;9.20;;
83840;SDS011;73868;52.172;10.668;2024-02-21T02:09:43;16.23;;;9.30;;
83840;SDS011;73868;52.172;10.668;2024-02-21T02:12:09;17.95;;;10.02;;
83840;SDS011;73868;52.172;10.668;2024-02-21T02:14:34;15.75;;;9.63;;
83840;SDS011;73868;52.172;10.668;2024-02-21T02:17:00;15.80;;;9.23;;
83840;SDS011;73868;52.172;10.668;2024-02-21T02:19:25;15.05;;;9.50;;
83840;SDS011;73868;52.172;10.668;2024-02-21T02:21:53;17.25;;;10.10;;
83840;SDS011;73868;52.172;10.668;2024-02-21T02:24:27;15.80;;;10.50;;
83840;SDS011;73868;52.172;10.668;2024-02-21T02:26:53;15.97;;;9.97;;
83840;SDS011;73868;52.172;10.668;2024-02-21T02:29:18;18.83;;;10.85;;
83840;SDS011;73868;52.172;10.668;2024-02-21T02:31:44;20.73;;;11.57;;
83840;SDS011;73868;52.172;10.668;2024-02-21T02:34:10;18.95;;;11.35;;
83840;SDS011;73868;52.172;10.668;2024-02-21T02:36:35;17.38;;;11.00;;
83840;SDS011;73868;52.172;10.668;2024-02-21T02:39:01;20.00;;;11.07;;
83840;SDS011;73868;52.172;10.668;2024-02-21T02:41:27;15.65;;;10.40;;
83840;SDS011;73868;52.172;10.668;2024-02-21T02:43:52;19.48;;;11.55;;
83840;SDS011;73868;52.172;10.668;2024-02-21T02:46:18;18.15;;;11.45;;
83840;SDS011;73868;52.172;10.668;2024-02-21T02:48:43;19.58;;;10.38;;
83840;SDS011;73868;52.172;10.668;2024-02-21T02:51:10;17.63;;;10.68;;
83840;SDS011;73868;52.172;10.668;2024-02-21T02:53:35;18.30;;;10.23;;
83840;SDS011;73868;52.172;10.668;2024-02-21T02:56:01;18.42;;;10.05;;
83840;SDS011;73868;52.172;10.668;2024-02-21T02:58:26;16.58;;;10.27;;
83840;SDS011;73868;52.172;10.668;2024-02-21T03:00:53;15.50;;;10.27;;
83840;SDS011;73868;52.172;10.668;2024-02-21T03:03:18;16.63;;;10.30;;
83840;SDS011;73868;52.172;10.668;2024-02-21T03:05:44;16.58;;;10.30;;
83840;SDS011;73868;52.172;10.668;2024-02-21T03:08:10;21.73;;;10.48;;
83840;SDS011;73868;52.172;10.668;2024-02-21T03:10:36;19.80;;;10.77;;
83840;SDS011;73868;52.172;10.668;2024-02-21T03:13:01;16.80;;;10.55;;
83840;SDS011;73868;52.172;10.668;2024-02-21T03:15:28;17.85;;;10.75;;
83840;SDS011;73868;52.172;10.668;2024-02-21T03:17:54;16.77;;;11.05;;
83840;SDS011;73868;52.172;10.668;2024-02-21T03:20:19;16.42;;;11.20;;
83840;SDS011;73868;52.172;10.668;2024-02-21T03:22:45;18.38;;;10.20;;
83840;SDS011;73868;52.172;10.668;2024-02-21T03:25:10;18.95;;;11.27;;
83840;SDS011;73868;52.172;10.668;2024-02-21T03:27:37;17.75;;;11.25;;
83840;SDS011;73868;52.172;10.668;2024-02-21T03:30:03;18.08;;;10.70;;
83840;SDS011;73868;52.172;10.668;2024-02-21T03:32:29;16.05;;;10.43;;
83840;SDS011;73868;52.172;10.668;2024-02-21T03:34:55;20.25;;;10.82;;
83840;SDS011;73868;52.172;10.668;2024-02-21T03:37:20;17.42;;;10.48;;
83840;SDS011;73868;52.172;10.668;2024-02-21T03:39:46;17.23;;;10.35;;
83840;SDS011;73868;52.172;10.668;2024-02-21T03:42:11;15.88;;;10.82;;
83840;SDS011;73868;52.172;10.668;2024-02-21T03:44:37;19.17;;;11.20;;
83840;SDS011;73868;52.172;10.668;2024-02-21T03:47:03;19.27;;;11.68;;
83840;SDS011;73868;52.172;10.668;2024-02-21T03:49:29;19.10;;;10.50;;
83840;SDS011;73868;52.172;10.668;2024-02-21T03:51:54;17.25;;;10.95;;
83840;SDS011;73868;52.172;10.668;2024-02-21T03:54:20;20.52;;;10.82;;
83840;SDS011;73868;52.172;10.668;2024-02-21T03:56:46;18.23;;;12.07;;
83840;SDS011;73868;52.172;10.668;2024-02-21T03:59:12;16.30;;;10.80;;
83840;SDS011;73868;52.172;10.668;2024-02-21T04:01:38;14.82;;;10.38;;
83840;SDS011;73868;52.172;10.668;2024-02-21T04:04:04;17.83;;;10.95;;
83840;SDS011;73868;52.172;10.668;2024-02-21T04:06:29;15.43;;;10.65;;
83840;SDS011;73868;52.172;10.668;2024-02-21T04:08:55;19.85;;;11.15;;
83840;SDS011;73868;52.172;10.668;2024-02-21T04:11:21;13.25;;;9.93;;
83840;SDS011;73868;52.172;10.668;2024-02-21T04:13:47;14.43;;;10.73;;
83840;SDS011;73868;52.172;10.668;2024-02-21T04:16:15;17.73;;;10.38;;
83840;SDS011;73868;52.172;10.668;2024-02-21T04:18:41;16.20;;;10.75;;
83840;SDS011;73868;52.172;10.668;2024-02-21T04:21:08;15.68;;;11.05;;
83840;SDS011;73868;52.172;10.668;2024-02-21T04:23:34;17.75;;;10.40;;
83840;SDS011;73868;52.172;10.668;2024-02-21T04:26:00;17.23;;;11.00;;
83840;SDS011;73868;52.172;10.668;2024-02-21T04:28:25;19.23;;;11.35;;
83840;SDS011;73868;52.172;10.668;2024-02-21T04:30:51;17.75;;;11.05;;
83840;SDS011;73868;52.172;10.668;2024-02-21T04:33:16;17.17;;;10.15;;
83840;SDS011;73868;52.172;10.668;2024-02-21T04:35:42;17.67;;;10.75;;
83840;SDS011;73868;52.172;10.668;2024-02-21T04:38:07;17.25;;;10.32;;
83840;SDS011;73868;52.172;10.668;2024-02-21T04:40:33;14.63;;;10.30;;
83840;SDS011;73868;52.172;10.668;2024-02-21T04:42:58;20.00;;;11.05;;
83840;SDS011;73868;52.172;10.668;2024-02-21T04:45:24;17.75;;;10.48;;
83840;SDS011;73868;52.172;10.668;2024-02-21T04:47:50;14.93;;;10.20;;
83840;SDS011;73868;52.172;10.668;2024-02-21T04:50:15;15.15;;;10.00;;
83840;SDS011;73868;52.172;10.668;2024-02-21T04:52:41;20.00;;;11.15;;
83840;SDS011;73868;52.172;10.668;2024-02-21T04:55:07;18.85;;;10.57;;
83840;SDS011;73868;52.172;10.668;2024-02-21T04:57:33;15.82;;;9.80;;
83840;SDS011;73868;52.172;10.668;2024-02-21T04:59:59;15.87;;;10.90;;
83840;SDS011;73868;52.172;10.668;2024-02-21T05:02:24;15.00;;;10.77;;
83840;SDS011;73868;52.172;10.668;2024-02-21T05:04:51;16.37;;;10.43;;
83840;SDS011;73868;52.172;10.668;2024-02-21T05:07:17;14.13;;;10.03;;
83840;SDS011;73868;52.172;10.668;2024-02-21T05:09:44;14.45;;;9.98;;
83840;SDS011;73868;52.172;10.668;2024-02-21T05:12:10;14.68;;;10.00;;
83840;SDS011;73868;52.172;10.668;2024-02-21T05:14:35;14.82;;;9.95;;
83840;SDS011;73868;52.172;10.668;2024-02-21T05:17:02;13.45;;;10.02;;
83840;SDS011;73868;52.172;10.668;2024-02-21T05:19:28;13.80;;;9.40;;
83840;SDS011;73868;52.172;10.668;2024-02-21T05:21:53;14.63;;;10.57;;
83840;SDS011;73868;52.172;10.668;2024-02-21T05:24:19;17.27;;;11.97;;
83840;SDS011;73868;52.172;10.668;2024-02-21T05:26:45;14.57;;;10.07;;
83840;SDS011;73868;52.172;10.668;2024-02-21T05:29:10;14.48;;;9.40;;
83840;SDS011;73868;52.172;10.668;2024-02-21T05:34:17;15.65;;;10.23;;
83840;SDS011;73868;52.172;10.668;2024-02-21T05:36:43;16.75;;;10.30;;
83840;SDS011;73868;52.172;10.668;2024-02-21T05:39:09;15.48;;;10.40;;
83840;SDS011;73868;52.172;10.668;2024-02-21T05:41:34;15.57;;;9.60;;
83840;SDS011;73868;52.172;10.668;2024-02-21T05:44:00;16.40;;;10.65;;
83840;SDS011;73868;52.172;10.668;2024-02-21T05:46:26;18.75;;;10.52;;
83840;SDS011;73868;52.172;10.668;2024-02-21T05:48:51;15.23;;;9.52;;
83840;SDS011;73868;52.172;10.668;2024-02-21T05:51:18;16.97;;;9.97;;
83840;SDS011;73868;52.172;10.668;2024-02-21T05:53:43;13.55;;;9.32;;
83840;SDS011;73868;52.172;10.668;2024-02-21T05:56:12;14.18;;;9.45;;
83840;SDS011;73868;52.172;10.668;2024-02-21T05:58:39;14.07;;;9.50;;
83840;SDS011;73868;52.172;10.668;2024-02-21T06:01:05;16.48;;;9.40;;
83840;SDS011;73868;52.172;10.668;2024-02-21T06:03:32;15.30;;;10.05;;
83840;SDS011;73868;52.172;10.668;2024-02-21T06:05:58;15.23;;;10.18;;
83840;SDS011;73868;52.172;10.668;2024-02-21T06:08:24;17.67;;;10.37;;
83840;SDS011;73868;52.172;10.668;2024-02-21T06:10:50;14.80;;;9.87;;
83840;SDS011;73868;52.172;10.668;2024-02-21T06:13:25;16.33;;;10.13;;
83840;SDS011;73868;52.172;10.668;2024-02-21T06:15:51;15.40;;;9.93;;
83840;SDS011;73868;52.172;10.668;2024-02-21T06:18:17;14.45;;;9.75;;
83840;SDS011;73868;52.172;10.668;2024-02-21T06:20:43;17.60;;;10.10;;
83840;SDS011;73868;52.172;10.668;2024-02-21T06:23:11;18.55;;;10.52;;
83840;SDS011;73868;52.172;10.668;2024-02-21T06:25:41;15.25;;;10.88;;
83840;SDS011;73868;52.172;10.668;2024-02-21T06:28:07;17.25;;;9.32;;
83840;SDS011;73868;52.172;10.668;2024-02-21T06:30:32;15.05;;;9.30;;
83840;SDS011;73868;52.172;10.668;2024-02-21T06:32:58;13.43;;;9.03;;
83840;SDS011;73868;52.172;10.668;2024-02-21T06:35:24;16.67;;;10.00;;
83840;SDS011;73868;52.172;10.668;2024-02-21T06:37:50;13.03;;;9.43;;
83840;SDS011;73868;52.172;10.668;2024-02-21T06:40:17;15.17;;;9.87;;
83840;SDS011;73868;52.172;10.668;2024-02-21T06:42:43;12.25;;;9.18;;
83840;SDS011;73868;52.172;10.668;2024-02-21T06:45:08;15.00;;;9.32;;
83840;SDS011;73868;52.172;10.668;2024-02-21T06:47:34;14.00;;;9.30;;
83840;SDS011;73868;52.172;10.668;2024-02-21T06:49:59;15.63;;;10.77;;
83840;SDS011;73868;52.172;10.668;2024-02-21T06:52:25;14.13;;;9.33;;
83840;SDS011;73868;52.172;10.668;2024-02-21T06:54:51;14.23;;;10.20;;
83840;SDS011;73868;52.172;10.668;2024-02-21T06:57:17;13.35;;;9.43;;
83840;SDS011;73868;52.172;10.668;2024-02-21T06:59:42;15.10;;;9.05;;
83840;SDS011;73868;52.172;10.668;2024-02-21T07:02:08;16.08;;;9.85;;
83840;SDS011;73868;52.172;10.668;2024-02-21T07:04:34;15.65;;;10.05;;
83840;SDS011;73868;52.172;10.668;2024-02-21T07:06:59;14.57;;;8.67;;
83840;SDS011;73868;52.172;10.668;2024-02-21T07:09:25;15.95;;;9.50;;
83840;SDS011;73868;52.172;10.668;2024-02-21T07:11:50;15.43;;;9.10;;
83840;SDS011;73868;52.172;10.668;2024-02-21T07:14:16;13.68;;;9.65;;
83840;SDS011;73868;52.172;10.668;2024-02-21T07:16:43;14.70;;;8.90;;
83840;SDS011;73868;52.172;10.668;2024-02-21T07:19:08;13.55;;;9.15;;
83840;SDS011;73868;52.172;10.668;2024-02-21T07:21:34;15.82;;;8.93;;
83840;SDS011;73868;52.172;10.668;2024-02-21T07:23:59;13.15;;;8.90;;
83840;SDS011;73868;52.172;10.668;2024-02-21T07:26:25;13.05;;;8.77;;
83840;SDS011;73868;52.172;10.668;2024-02-21T07:28:50;12.43;;;8.10;;
83840;SDS011;73868;52.172;10.668;2024-02-21T07:31:16;12.75;;;8.75;;
83840;SDS011;73868;52.172;10.668;2024-02-21T07:33:42;14.27;;;8.95;;
83840;SDS011;73868;52.172;10.668;2024-02-21T07:36:07;11.88;;;8.40;;
83840;SDS011;73868;52.172;10.668;2024-02-21T07:38:35;12.88;;;8.65;;
83840;SDS011;73868;52.172;10.668;2024-02-21T07:41:00;11.98;;;8.05;;
83840;SDS011;73868;52.172;10.668;2024-02-21T07:43:26;13.68;;;8.43;;
83840;SDS011;73868;52.172;10.668;2024-02-21T07:45:52;14.48;;;8.43;;
83840;SDS011;73868;52.172;10.668;2024-02-21T07:48:21;12.55;;;8.82;;
83840;SDS011;73868;52.172;10.668;2024-02-21T07:50:49;10.63;;;7.63;;
83840;SDS011;73868;52.172;10.668;2024-02-21T07:53:15;12.70;;;7.85;;
83840;SDS011;73868;52.172;10.668;2024-02-21T07:55:41;17.75;;;8.07;;
83840;SDS011;73868;52.172;10.668;2024-02-21T07:58:07;12.93;;;8.00;;
83840;SDS011;73868;52.172;10.668;2024-02-21T08:00:32;10.27;;;7.80;;
83840;SDS011;73868;52.172;10.668;2024-02-21T08:02:58;12.02;;;7.80;;
83840;SDS011;73868;52.172;10.668;2024-02-21T08:05:24;11.02;;;7.75;;
83840;SDS011;73868;52.172;10.668;2024-02-21T08:07:49;12.73;;;7.93;;
83840;SDS011;73868;52.172;10.668;2024-02-21T08:10:15;12.05;;;7.32;;
83840;SDS011;73868;52.172;10.668;2024-02-21T08:12:40;15.45;;;8.35;;
83840;SDS011;73868;52.172;10.668;2024-02-21T08:15:06;12.32;;;7.50;;
83840;SDS011;73868;52.172;10.668;2024-02-21T08:17:36;11.48;;;7.20;;
83840;SDS011;73868;52.172;10.668;2024-02-21T08:20:02;13.60;;;8.07;;
83840;SDS011;73868;52.172;10.668;2024-02-21T08:22:29;10.90;;;7.35;;
83840;SDS011;73868;52.172;10.668;2024-02-21T08:24:55;11.13;;;7.20;;
83840;SDS011;73868;52.172;10.668;2024-02-21T08:27:20;9.85;;;6.68;;
83840;SDS011;73868;52.172;10.668;2024-02-21T08:29:46;12.23;;;7.00;;
83840;SDS011;73868;52.172;10.668;2024-02-21T08:32:12;11.63;;;7.30;;
83840;SDS011;73868;52.172;10.668;2024-02-21T08:34:37;10.23;;;6.13;;
83840;SDS011;73868;52.172;10.668;2024-02-21T08:37:03;12.25;;;6.95;;
83840;SDS011;73868;52.172;10.668;2024-02-21T08:39:28;10.80;;;7.13;;
83840;SDS011;73868;52.172;10.668;2024-02-21T08:41:55;13.60;;;7.30;;
83840;SDS011;73868;52.172;10.668;2024-02-21T08:44:22;11.90;;;6.70;;
83840;SDS011;73868;52.172;10.668;2024-02-21T08:46:49;10.23;;;7.25;;
83840;SDS011;73868;52.172;10.668;2024-02-21T08:49:14;12.35;;;7.80;;
83840;SDS011;73868;52.172;10.668;2024-02-21T08:51:40;12.60;;;6.68;;
83840;SDS011;73868;52.172;10.668;2024-02-21T08:54:05;12.27;;;6.72;;
83840;SDS011;73868;52.172;10.668;2024-02-21T08:56:31;15.70;;;7.13;;
83840;SDS011;73868;52.172;10.668;2024-02-21T08:58:57;14.35;;;7.45;;
83840;SDS011;73868;52.172;10.668;2024-02-21T09:01:23;16.80;;;11.05;;
83840;SDS011;73868;52.172;10.668;2024-02-21T09:03:48;12.02;;;7.25;;
83840;SDS011;73868;52.172;10.668;2024-02-21T09:06:18;12.40;;;6.40;;
83840;SDS011;73868;52.172;10.668;2024-02-21T09:08:44;9.38;;;6.10;;
83840;SDS011;73868;52.172;10.668;2024-02-21T09:11:10;11.35;;;6.13;;
83840;SDS011;73868;52.172;10.668;2024-02-21T09:13:36;9.07;;;6.05;;
83840;SDS011;73868;52.172;10.668;2024-02-21T09:16:01;10.02;;;5.93;;
83840;SDS011;73868;52.172;10.668;2024-02-21T09:18:28;10.68;;;6.40;;
83840;SDS011;73868;52.172;10.668;2024-02-21T09:20:54;9.48;;;6.30;;
83840;SDS011;73868;52.172;10.668;2024-02-21T09:23:20;9.88;;;5.65;;
83840;SDS011;73868;52.172;10.668;2024-02-21T09:25:45;9.85;;;5.32;;
83840;SDS011;73868;52.172;10.668;2024-02-21T09:28:11;9.60;;;5.05;;
83840;SDS011;73868;52.172;10.668;2024-02-21T09:30:38;10.52;;;5.22;;
83840;SDS011;73868;52.172;10.668;2024-02-21T09:33:03;9.27;;;5.35;;
83840;SDS011;73868;52.172;10.668;2024-02-21T09:35:30;10.00;;;6.00;;
83840;SDS011;73868;52.172;10.668;2024-02-21T09:37:56;8.70;;;5.38;;
83840;SDS011;73868;52.172;10.668;2024-02-21T09:40:21;8.40;;;5.40;;
83840;SDS011;73868;52.172;10.668;2024-02-21T09:42:47;10.80;;;6.10;;
83840;SDS011;73868;52.172;10.668;2024-02-21T09:50:36;7.50;;;4.85;;
83840;SDS011;73868;52.172;10.668;2024-02-21T09:53:05;8.77;;;5.35;;
83840;SDS011;73868;52.172;10.668;2024-02-21T09:55:32;9.32;;;5.40;;
83840;SDS011;73868;52.172;10.668;2024-02-21T09:57:59;7.88;;;5.25;;
83840;SDS011;73868;52.172;10.668;2024-02-21T10:00:26;9.60;;;5.45;;
83840;SDS011;73868;52.172;10.668;2024-02-21T10:02:53;10.40;;;5.55;;
83840;SDS011;73868;52.172;10.668;2024-02-21T10:05:18;11.30;;;5.35;;
83840;SDS011;73868;52.172;10.668;2024-02-21T10:07:44;8.60;;;4.97;;
83840;SDS011;73868;52.172;10.668;2024-02-21T10:10:10;8.48;;;5.03;;
83840;SDS011;73868;52.172;10.668;2024-02-21T10:12:36;7.57;;;5.68;;
83840;SDS011;73868;52.172;10.668;2024-02-21T10:15:02;8.73;;;5.25;;
83840;SDS011;73868;52.172;10.668;2024-02-21T10:17:28;7.10;;;5.15;;
83840;SDS011;73868;52.172;10.668;2024-02-21T10:19:54;8.48;;;4.80;;
83840;SDS011;73868;52.172;10.668;2024-02-21T10:22:19;8.02;;;4.82;;
83840;SDS011;73868;52.172;10.668;2024-02-21T10:24:50;10.32;;;4.70;;
83840;SDS011;73868;52.172;10.668;2024-02-21T10:27:16;6.90;;;4.80;;
83840;SDS011;73868;52.172;10.668;2024-02-21T10:29:41;6.90;;;4.70;;
83840;SDS011;73868;52.172;10.668;2024-02-21T10:32:07;6.93;;;4.68;;
83840;SDS011;73868;52.172;10.668;2024-02-21T10:37:05;6.18;;;4.90;;
83840;SDS011;73868;52.172;10.668;2024-02-21T10:39:39;7.32;;;4.57;;
83840;SDS011;73868;52.172;10.668;2024-02-21T10:42:06;6.60;;;3.85;;
83840;SDS011;73868;52.172;10.668;2024-02-21T10:44:33;10.13;;;5.15;;
83840;SDS011;73868;52.172;10.668;2024-02-21T10:46:59;7.97;;;4.05;;
83840;SDS011;73868;52.172;10.668;2024-02-21T10:49:26;8.25;;;4.60;;
83840;SDS011;73868;52.172;10.668;2024-02-21T10:51:58;6.78;;;4.45;;
83840;SDS011;73868;52.172;10.668;2024-02-21T10:57:18;7.97;;;4.47;;
83840;SDS011;73868;52.172;10.668;2024-02-21T10:59:47;6.63;;;4.55;;
83840;SDS011;73868;52.172;10.668;2024-02-21T11:02:13;6.40;;;4.18;;
83840;SDS011;73868;52.172;10.668;2024-02-21T11:04:40;7.72;;;4.30;;
83840;SDS011;73868;52.172;10.668;2024-02-21T11:07:06;7.32;;;4.18;;
83840;SDS011;73868;52.172;10.668;2024-02-21T11:09:33;7.70;;;4.47;;
83840;SDS011;73868;52.172;10.668;2024-02-21T11:12:02;6.75;;;4.53;;
83840;SDS011;73868;52.172;10.668;2024-02-21T11:14:29;9.52;;;4.30;;
83840;SDS011;73868;52.172;10.668;2024-02-21T11:16:58;9.40;;;4.53;;
83840;SDS011;73868;52.172;10.668;2024-02-21T11:19:27;11.02;;;4.68;;
83840;SDS011;73868;52.172;10.668;2024-02-21T11:21:57;7.97;;;4.25;;
83840;SDS011;73868;52.172;10.668;2024-02-21T11:24:33;7.53;;;4.70;;
83840;SDS011;73868;52.172;10.668;2024-02-21T11:27:11;7.53;;;4.40;;
83840;SDS011;73868;52.172;10.668;2024-02-21T11:32:10;9.50;;;4.60;;
83840;SDS011;73868;52.172;10.668;2024-02-21T11:34:37;5.60;;;4.22;;
83840;SDS011;73868;52.172;10.668;2024-02-21T11:37:12;5.65;;;4.20;;
83840;SDS011;73868;52.172;10.668;2024-02-21T11:39:40;5.50;;;3.83;;
83840;SDS011;73868;52.172;10.668;2024-02-21T11:42:07;5.97;;;4.15;;
83840;SDS011;73868;52.172;10.668;2024-02-21T11:44:33;8.10;;;4.65;;
83840;SDS011;73868;52.172;10.668;2024-02-21T11:47:00;8.98;;;4.60;;
83840;SDS011;73868;52.172;10.668;2024-02-21T11:49:29;6.18;;;4.28;;
83840;SDS011;73868;52.172;10.668;2024-02-21T11:52:01;7.25;;;4.18;;
83840;SDS011;73868;52.172;10.668;2024-02-21T11:54:29;8.25;;;4.15;;
83840;SDS011;73868;52.172;10.668;2024-02-21T11:56:55;8.55;;;4.80;;
83840;SDS011;73868;52.172;10.668;2024-02-21T11:59:21;6.47;;;4.18;;
83840;SDS011;73868;52.172;10.668;2024-02-21T12:01:47;5.30;;;3.80;;
83840;SDS011;73868;52.172;10.668;2024-02-21T12:04:13;8.32;;;3.78;;
83840;SDS011;73868;52.172;10.668;2024-02-21T12:06:42;6.68;;;4.10;;
83840;SDS011;73868;52.172;10.668;2024-02-21T12:09:09;5.65;;;3.47;;
83840;SDS011;73868;52.172;10.668;2024-02-21T12:11:35;6.70;;;4.03;;
83840;SDS011;73868;52.172;10.668;2024-02-21T12:14:01;6.65;;;4.18;;
83840;SDS011;73868;52.172;10.668;2024-02-21T12:16:29;6.50;;;4.50;;
83840;SDS011;73868;52.172;10.668;2024-02-21T12:18:55;8.13;;;4.00;;
83840;SDS011;73868;52.172;10.668;2024-02-21T12:21:29;6.30;;;3.88;;
83840;SDS011;73868;52.172;10.668;2024-02-21T12:23:57;9.80;;;4.78;;
83840;SDS011;73868;52.172;10.668;2024-02-21T12:26:23;7.78;;;4.40;;
83840;SDS011;73868;52.172;10.668;2024-02-21T12:28:49;6.95;;;3.78;;
83840;SDS011;73868;52.172;10.668;2024-02-21T12:31:15;8.20;;;4.20;;
83840;SDS011;73868;52.172;10.668;2024-02-21T12:33:41;6.28;;;3.67;;
83840;SDS011;73868;52.172;10.668;2024-02-21T12:36:09;6.38;;;4.22;;
83840;SDS011;73868;52.172;10.668;2024-02-21T12:38:35;7.40;;;4.20;;
83840;SDS011;73868;52.172;10.668;2024-02-21T12:41:02;6.22;;;3.65;;
83840;SDS011;73868;52.172;10.668;2024-02-21T12:43:28;6.60;;;3.15;;
83840;SDS011;73868;52.172;10.668;2024-02-21T12:45:54;7.00;;;3.40;;
83840;SDS011;73868;52.172;10.668;2024-02-21T12:48:19;5.22;;;3.53;;
83840;SDS011;73868;52.172;10.668;2024-02-21T12:50:49;5.13;;;3.42;;
83840;SDS011;73868;52.172;10.668;2024-02-21T12:53:18;7.18;;;3.70;;
83840;SDS011;73868;52.172;10.668;2024-02-21T12:55:46;5.57;;;3.25;;
83840;SDS011;73868;52.172;10.668;2024-02-21T12:58:13;5.38;;;3.05;;
83840;SDS011;73868;52.172;10.668;2024-02-21T13:00:39;6.07;;;3.28;;
83840;SDS011;73868;52.172;10.668;2024-02-21T13:03:05;7.97;;;3.25;;
83840;SDS011;73868;52.172;10.668;2024-02-21T13:05:30;5.35;;;2.83;;
83840;SDS011;73868;52.172;10.668;2024-02-21T13:07:57;4.95;;;3.45;;
83840;SDS011;73868;52.172;10.668;2024-02-21T13:10:25;5.18;;;3.10;;
83840;SDS011;73868;52.172;10.668;2024-02-21T13:12:51;8.07;;;2.78;;
83840;SDS011;73868;52.172;10.668;2024-02-21T13:15:17;7.38;;;2.90;;
83840;SDS011;73868;52.172;10.668;2024-02-21T13:17:46;8.43;;;3.60;;
83840;SDS011;73868;52.172;10.668;2024-02-21T13:20:11;4.70;;;2.70;;
83840;SDS011;73868;52.172;10.668;2024-02-21T13:22:38;5.05;;;2.88;;
83840;SDS011;73868;52.172;10.668;2024-02-21T13:25:04;4.95;;;3.28;;
83840;SDS011;73868;52.172;10.668;2024-02-21T13:27:32;6.13;;;3.33;;
83840;SDS011;73868;52.172;10.668;2024-02-21T13:29:58;4.78;;;3.00;;
83840;SDS011;73868;52.172;10.668;2024-02-21T13:32:25;8.55;;;3.65;;
83840;SDS011;73868;52.172;10.668;2024-02-21T13:34:50;4.57;;;3.35;;
83840;SDS011;73868;52.172;10.668;2024-02-21T13:37:17;4.95;;;3.33;;
83840;SDS011;73868;52.172;10.668;2024-02-21T13:39:43;7.53;;;3.50;;
83840;SDS011;73868;52.172;10.668;2024-02-21T13:42:09;10.45;;;4.38;;
83840;SDS011;73868;52.172;10.668;2024-02-21T13:44:35;6.38;;;3.70;;
83840;SDS011;73868;52.172;10.668;2024-02-21T13:47:01;6.13;;;2.90;;
83840;SDS011;73868;52.172;10.668;2024-02-21T13:49:27;4.90;;;3.17;;
83840;SDS011;73868;52.172;10.668;2024-02-21T13:51:53;5.18;;;3.00;;
83840;SDS011;73868;52.172;10.668;2024-02-21T13:54:19;6.18;;;3.38;;
83840;SDS011;73868;52.172;10.668;2024-02-21T13:56:46;7.20;;;3.60;;
83840;SDS011;73868;52.172;10.668;2024-02-21T13:59:12;5.88;;;3.33;;
83840;SDS011;73868;52.172;10.668;2024-02-21T14:01:41;7.07;;;3.40;;
83840;SDS011;73868;52.172;10.668;2024-02-21T14:04:08;6.70;;;3.13;;
83840;SDS011;73868;52.172;10.668;2024-02-21T14:06:34;5.35;;;2.88;;
83840;SDS011;73868;52.172;10.668;2024-02-21T14:09:00;5.85;;;3.28;;
83840;SDS011;73868;52.172;10.668;2024-02-21T14:11:26;6.63;;;3.08;;
83840;SDS011;73868;52.172;10.668;2024-02-21T14:13:55;7.25;;;3.38;;
83840;SDS011;73868;52.172;10.668;2024-02-21T14:16:22;5.78;;;3.30;;
83840;SDS011;73868;52.172;10.668;2024-02-21T14:18:47;6.53;;;2.78;;
83840;SDS011;73868;52.172;10.668;2024-02-21T14:21:13;4.30;;;2.90;;
83840;SDS011;73868;52.172;10.668;2024-02-21T14:23:39;6.30;;;2.85;;
83840;SDS011;73868;52.172;10.668;2024-02-21T14:26:05;5.00;;;2.80;;
83840;SDS011;73868;52.172;10.668;2024-02-21T14:28:34;6.45;;;2.60;;
83840;SDS011;73868;52.172;10.668;2024-02-21T14:30:59;4.57;;;2.70;;
83840;SDS011;73868;52.172;10.668;2024-02-21T14:33:26;4.03;;;2.80;;